Time;durP1;ratioP1;P1;durP2;ratioP2;P2;SDS_P1;SDS_P2;PMS_P1;PMS_P2;Temp;Humidity;BMP_temperature;BMP_pressure;BME280_temperature;BME280_humidity;BME280_pressure;Samples;Min_cycle;Max_cycle;Signal;HPM_P1;HPM_P2
2024/01/18 00:00:54;;;;;;;25.20;12.45;;;-0.50;99.90;;;;;;5042523;28;20367;-81
2024/01/18 00:03:20;;;;;;;26.02;12.90;;;-0.50;99.90;;;;;;5041766;28;20036;-79
2024/01/18 00:05:46;;;;;;;34.30;16.05;;;-0.50;99.90;;;;;;5041875;28;20025;-78
2024/01/18 00:08:11;;;;;;;48.17;19.20;;;-0.50;99.90;;;;;;5043517;28;20541;-79
2024/01/18 00:10:37;;;;;;;42.67;21.80;;;-0.50;99.90;;;;;;5046462;28;20673;-78
2024/01/18 00:13:03;;;;;;;47.85;23.90;;;-0.50;99.90;;;;;;5036510;28;20514;-80
2024/01/18 00:15:28;;;;;;;49.80;24.60;;;-0.60;99.90;;;;;;5040811;28;20117;-79
2024/01/18 00:17:54;;;;;;;42.83;23.90;;;-0.60;99.90;;;;;;5039826;28;20082;-78
2024/01/18 00:20:22;;;;;;;44.08;25.30;;;-0.60;99.90;;;;;;5042428;28;20044;-78
2024/01/18 00:22:48;;;;;;;45.67;25.83;;;-0.60;99.90;;;;;;5043886;28;20359;-80
2024/01/18 00:25:13;;;;;;;50.03;27.33;;;-0.70;99.90;;;;;;5040932;28;20082;-78
2024/01/18 00:27:39;;;;;;;56.83;27.08;;;-0.70;99.90;;;;;;5042898;28;20120;-78
2024/01/18 00:30:05;;;;;;;58.50;27.02;;;-0.70;99.90;;;;;;5043394;28;20083;-78
2024/01/18 00:32:31;;;;;;;54.63;26.50;;;-0.70;99.90;;;;;;5040696;28;20367;-78
2024/01/18 00:34:58;;;;;;;60.38;27.88;;;-0.70;99.90;;;;;;5042217;28;20025;-78
2024/01/18 00:37:24;;;;;;;54.97;28.38;;;-0.70;99.90;;;;;;5043827;28;20017;-79
2024/01/18 00:39:49;;;;;;;55.92;28.38;;;-0.70;99.90;;;;;;5041848;28;20071;-80
2024/01/18 00:42:16;;;;;;;50.63;28.35;;;-0.70;99.90;;;;;;5047790;28;20052;-78
2024/01/18 00:44:41;;;;;;;56.83;30.25;;;-0.80;99.90;;;;;;5040789;28;20025;-79
2024/01/18 00:47:10;;;;;;;62.63;31.40;;;-0.80;99.90;;;;;;5040398;28;20052;-81
2024/01/18 00:49:38;;;;;;;63.97;31.33;;;-0.80;99.90;;;;;;5043322;28;20032;-78
2024/01/18 00:52:04;;;;;;;58.55;30.30;;;-0.80;99.90;;;;;;5040411;28;20056;-79
2024/01/18 00:54:30;;;;;;;61.95;31.58;;;-0.80;99.90;;;;;;5045220;28;20032;-78
2024/01/18 00:56:55;;;;;;;66.75;31.65;;;-0.80;99.90;;;;;;5024396;28;20404;-78
2024/01/18 00:59:21;;;;;;;69.13;34.40;;;-0.80;99.90;;;;;;5043199;28;20032;-79
2024/01/18 01:01:46;;;;;;;65.78;33.55;;;-0.80;99.90;;;;;;5040771;28;20036;-78
2024/01/18 01:04:12;;;;;;;62.58;30.92;;;-0.80;99.90;;;;;;5024503;28;20033;-78
2024/01/18 01:06:38;;;;;;;66.63;32.78;;;-0.80;99.90;;;;;;5048678;28;20039;-79
2024/01/18 01:09:06;;;;;;;69.00;32.40;;;-0.80;99.90;;;;;;5023456;28;20033;-79
2024/01/18 01:11:34;;;;;;;60.28;32.17;;;-0.80;99.90;;;;;;5039345;28;20040;-81
2024/01/18 01:14:00;;;;;;;64.47;32.70;;;-0.80;99.90;;;;;;5048287;28;20044;-79
2024/01/18 01:16:26;;;;;;;58.95;32.42;;;-0.80;99.90;;;;;;5045435;28;20032;-78
2024/01/18 01:18:51;;;;;;;54.72;30.52;;;-0.70;99.90;;;;;;5041596;28;21755;-79
2024/01/18 01:21:20;;;;;;;55.42;31.15;;;-0.70;99.90;;;;;;5042055;28;20029;-81
2024/01/18 01:23:48;;;;;;;56.85;31.55;;;-0.70;99.90;;;;;;5043097;28;20549;-80
2024/01/18 01:26:15;;;;;;;62.95;33.05;;;-0.80;99.90;;;;;;5045911;28;20547;-79
2024/01/18 01:28:44;;;;;;;65.65;32.20;;;-0.70;99.90;;;;;;5019972;28;20561;-81
2024/01/18 01:31:10;;;;;;;58.88;30.88;;;-0.70;99.90;;;;;;5040065;28;20028;-81
2024/01/18 01:33:36;;;;;;;64.43;33.08;;;-0.70;99.90;;;;;;5043730;28;20123;-80
2024/01/18 01:36:02;;;;;;;59.40;32.92;;;-0.70;99.90;;;;;;5042978;28;20119;-80
2024/01/18 01:38:28;;;;;;;66.80;32.67;;;-0.70;99.90;;;;;;5044213;28;20032;-79
2024/01/18 01:40:54;;;;;;;61.25;32.58;;;-0.70;99.90;;;;;;5041427;28;20102;-80
2024/01/18 01:43:20;;;;;;;58.72;31.20;;;-0.80;99.90;;;;;;5038681;28;20448;-80
2024/01/18 01:45:45;;;;;;;55.33;30.55;;;-0.70;99.90;;;;;;5042021;28;20116;-79
2024/01/18 01:48:12;;;;;;;66.22;31.13;;;-0.70;99.90;;;;;;5048893;28;20021;-79
2024/01/18 01:50:39;;;;;;;63.28;29.90;;;-0.70;99.90;;;;;;5046219;28;20025;-79
2024/01/18 01:53:07;;;;;;;70.93;34.08;;;-0.70;99.90;;;;;;5044211;28;20045;-80
2024/01/18 01:55:33;;;;;;;59.58;31.90;;;-0.70;99.90;;;;;;5040973;28;20025;-80
2024/01/18 01:57:59;;;;;;;56.85;30.63;;;-0.80;99.90;;;;;;5045074;28;20096;-79
2024/01/18 02:00:25;;;;;;;60.85;33.03;;;-0.70;99.90;;;;;;5048255;28;20032;-79
2024/01/18 02:02:51;;;;;;;58.28;31.25;;;-0.70;99.90;;;;;;5044807;28;20028;-79
2024/01/18 02:05:19;;;;;;;59.30;31.45;;;-0.70;99.90;;;;;;5047299;28;20329;-80
2024/01/18 02:07:45;;;;;;;59.63;30.55;;;-0.80;99.90;;;;;;5045230;28;20525;-80
2024/01/18 02:10:11;;;;;;;69.22;31.23;;;-0.80;99.90;;;;;;5052575;28;20025;-79
2024/01/18 02:12:39;;;;;;;55.33;27.20;;;-0.80;99.90;;;;;;5049558;28;20127;-81
2024/01/18 02:15:05;;;;;;;56.95;28.65;;;-0.80;99.90;;;;;;5045535;28;20090;-79
2024/01/18 02:17:31;;;;;;;58.47;30.63;;;-0.80;99.90;;;;;;5048456;28;20170;-80
2024/01/18 02:19:57;;;;;;;65.35;30.13;;;-0.80;99.90;;;;;;5053410;28;20084;-79
2024/01/18 02:22:26;;;;;;;56.42;29.58;;;-0.80;99.90;;;;;;5043774;28;20033;-80
2024/01/18 02:24:58;;;;;;;59.30;30.10;;;-0.80;99.90;;;;;;5036376;28;20390;-79
2024/01/18 02:27:24;;;;;;;48.22;26.35;;;-0.80;99.90;;;;;;5045238;28;20079;-79
2024/01/18 02:29:51;;;;;;;56.20;29.77;;;-0.80;99.90;;;;;;5044429;28;20493;-80
2024/01/18 02:32:16;;;;;;;66.05;31.23;;;-0.80;99.90;;;;;;5043883;28;20044;-81
2024/01/18 02:34:43;;;;;;;62.20;32.88;;;-0.80;99.90;;;;;;5044188;28;20037;-79
2024/01/18 02:37:11;;;;;;;60.45;29.77;;;-0.80;99.90;;;;;;5046298;28;20115;-79
2024/01/18 02:39:37;;;;;;;63.13;29.77;;;-0.70;99.90;;;;;;5048668;28;20400;-80
2024/01/18 02:42:06;;;;;;;51.75;27.10;;;-0.70;99.90;;;;;;5022183;28;20024;-81
2024/01/18 02:44:37;;;;;;;53.42;27.17;;;-0.70;99.90;;;;;;5041877;28;20489;-81
2024/01/18 02:47:03;;;;;;;59.85;26.70;;;-0.70;99.90;;;;;;5045274;28;20029;-80
2024/01/18 02:49:29;;;;;;;66.40;28.80;;;-0.70;99.90;;;;;;5043811;28;20029;-79
2024/01/18 02:51:56;;;;;;;53.97;28.35;;;-0.70;99.90;;;;;;5053251;28;20044;-79
2024/01/18 02:54:21;;;;;;;60.80;28.23;;;-0.70;99.90;;;;;;5041489;28;20055;-80
2024/01/18 02:56:47;;;;;;;52.17;25.85;;;-0.80;99.90;;;;;;5043144;28;20028;-80
2024/01/18 02:59:13;;;;;;;53.30;27.40;;;-0.70;99.90;;;;;;5051019;28;20036;-81
2024/01/18 03:01:39;;;;;;;68.40;27.92;;;-0.80;99.90;;;;;;5026433;28;20028;-79
2024/01/18 03:04:04;;;;;;;55.55;27.90;;;-0.80;99.90;;;;;;5041502;28;20111;-80
2024/01/18 03:06:30;;;;;;;65.72;30.40;;;-0.80;99.90;;;;;;5043362;28;20071;-79
2024/01/18 03:08:56;;;;;;;52.67;26.85;;;-0.80;99.90;;;;;;5041317;28;20029;-80
2024/01/18 03:11:21;;;;;;;55.53;27.90;;;-0.80;99.90;;;;;;5044037;28;20032;-80
2024/01/18 03:13:47;;;;;;;55.08;29.63;;;-0.80;99.90;;;;;;5045533;28;20508;-80
2024/01/18 03:16:15;;;;;;;65.10;29.70;;;-0.80;99.90;;;;;;5044356;28;20493;-82
2024/01/18 03:18:46;;;;;;;60.60;27.90;;;-0.80;99.90;;;;;;5043614;28;20389;-82
2024/01/18 03:21:11;;;;;;;62.78;26.80;;;-0.80;99.90;;;;;;5047940;28;20538;-79
2024/01/18 03:23:37;;;;;;;50.75;27.55;;;-0.80;99.90;;;;;;5043809;28;20028;-79
2024/01/18 03:26:07;;;;;;;63.28;29.42;;;-0.80;99.90;;;;;;5042807;28;20036;-82
2024/01/18 03:28:33;;;;;;;62.38;29.08;;;-0.80;99.90;;;;;;5041467;28;20033;-79
2024/01/18 03:30:59;;;;;;;57.50;29.15;;;-0.80;99.90;;;;;;5041266;28;20399;-79
2024/01/18 03:33:24;;;;;;;62.85;30.15;;;-0.80;99.90;;;;;;5043896;28;20064;-79
2024/01/18 03:35:50;;;;;;;52.83;28.02;;;-0.80;99.90;;;;;;5043845;28;20405;-79
2024/01/18 03:38:15;;;;;;;61.05;28.35;;;-0.80;99.90;;;;;;5042501;28;20409;-80
2024/01/18 03:40:42;;;;;;;63.58;31.50;;;-0.80;99.90;;;;;;5040741;28;20359;-82
2024/01/18 03:43:08;;;;;;;61.25;30.25;;;-0.80;99.90;;;;;;5042397;28;20040;-82
2024/01/18 03:45:34;;;;;;;55.25;29.95;;;-0.90;99.90;;;;;;5036246;28;20024;-80
2024/01/18 03:47:59;;;;;;;64.50;29.42;;;-0.90;99.90;;;;;;5044523;28;20488;-79
2024/01/18 03:50:25;;;;;;;60.70;30.73;;;-0.90;99.90;;;;;;5044467;28;20053;-79
2024/01/18 03:52:51;;;;;;;63.17;29.30;;;-0.90;99.90;;;;;;5046102;28;20447;-79
2024/01/18 03:55:16;;;;;;;62.47;29.42;;;-1.00;99.90;;;;;;5043882;28;20604;-80
2024/01/18 03:57:42;;;;;;;59.70;30.40;;;-1.00;99.90;;;;;;5041260;28;20036;-79
2024/01/18 04:00:12;;;;;;;61.67;31.20;;;-1.00;99.90;;;;;;5041307;28;20059;-79
2024/01/18 04:02:38;;;;;;;59.30;28.73;;;-1.00;99.90;;;;;;5042523;28;20151;-79
2024/01/18 04:05:04;;;;;;;60.30;31.83;;;-1.00;99.90;;;;;;5041288;28;20092;-79
2024/01/18 04:07:30;;;;;;;64.57;32.20;;;-0.90;99.90;;;;;;5040272;28;20024;-79
2024/01/18 04:09:56;;;;;;;69.93;32.20;;;-0.90;99.90;;;;;;5039899;28;20032;-80
2024/01/18 04:12:22;;;;;;;67.28;32.38;;;-0.90;99.90;;;;;;5033097;28;20067;-80
2024/01/18 04:14:48;;;;;;;60.58;30.65;;;-0.90;99.90;;;;;;5041684;28;20293;-81
2024/01/18 04:17:13;;;;;;;60.65;29.65;;;-0.90;99.90;;;;;;5043492;28;20390;-80
2024/01/18 04:19:39;;;;;;;58.38;29.42;;;-0.90;99.90;;;;;;5047403;28;20128;-79
2024/01/18 04:22:09;;;;;;;54.55;26.77;;;-0.90;99.90;;;;;;5040631;28;20689;-79
2024/01/18 04:24:35;;;;;;;55.28;27.40;;;-0.90;99.90;;;;;;5039121;28;20033;-80
2024/01/18 04:27:01;;;;;;;56.75;30.20;;;-0.90;99.90;;;;;;5044963;28;20046;-78
2024/01/18 04:29:28;;;;;;;60.50;31.05;;;-0.90;99.90;;;;;;5047840;28;20044;-79
2024/01/18 04:31:54;;;;;;;65.90;33.28;;;-0.80;99.90;;;;;;5042526;28;20025;-79
2024/01/18 04:34:19;;;;;;;67.35;30.75;;;-0.80;99.90;;;;;;5035801;28;20086;-79
2024/01/18 04:36:49;;;;;;;63.88;31.95;;;-0.90;99.90;;;;;;5037630;28;20040;-80
2024/01/18 04:39:16;;;;;;;70.32;31.52;;;-0.90;99.90;;;;;;5039736;28;20031;-79
2024/01/18 04:41:41;;;;;;;77.05;32.80;;;-0.90;99.90;;;;;;5043563;28;20543;-79
2024/01/18 04:44:07;;;;;;;70.05;31.67;;;-0.90;99.90;;;;;;5041056;28;20029;-80
2024/01/18 04:46:33;;;;;;;71.07;32.22;;;-0.90;99.90;;;;;;5042249;28;20028;-79
2024/01/18 04:48:58;;;;;;;66.25;29.65;;;-0.90;99.90;;;;;;5042388;28;20473;-79
2024/01/18 04:51:24;;;;;;;65.65;30.15;;;-0.90;99.90;;;;;;5042822;28;20052;-80
2024/01/18 04:53:49;;;;;;;53.67;28.20;;;-1.00;99.90;;;;;;5042290;28;20045;-80
2024/01/18 04:56:15;;;;;;;65.50;28.92;;;-0.90;99.90;;;;;;5041462;28;20041;-79
2024/01/18 04:58:43;;;;;;;59.00;28.42;;;-1.00;99.90;;;;;;5036512;28;20021;-81
2024/01/18 05:01:09;;;;;;;48.78;26.58;;;-0.90;99.90;;;;;;5041432;28;20033;-81
2024/01/18 05:03:35;;;;;;;50.42;25.85;;;-0.80;99.90;;;;;;5041411;28;20048;-80
2024/01/18 05:06:00;;;;;;;56.08;27.13;;;-0.80;99.90;;;;;;5021182;28;20021;-79
2024/01/18 05:08:26;;;;;;;59.63;28.73;;;-0.80;99.90;;;;;;5040548;28;20248;-79
2024/01/18 05:10:53;;;;;;;56.30;27.55;;;-0.80;99.90;;;;;;5042600;28;20096;-80
2024/01/18 05:13:20;;;;;;;55.00;27.77;;;-0.70;99.90;;;;;;5040780;28;20734;-80
2024/01/18 05:15:46;;;;;;;56.38;29.55;;;-0.70;99.90;;;;;;5040678;28;20115;-79
2024/01/18 05:18:13;;;;;;;63.78;29.75;;;-0.70;99.90;;;;;;5037222;28;20114;-80
2024/01/18 05:20:39;;;;;;;55.03;27.08;;;-0.70;99.90;;;;;;5038781;28;20107;-79
2024/01/18 05:23:06;;;;;;;55.38;29.70;;;-0.70;99.90;;;;;;5037798;28;20456;-80
2024/01/18 05:25:32;;;;;;;60.25;29.40;;;-0.70;99.90;;;;;;5038645;28;20393;-79
2024/01/18 05:27:59;;;;;;;57.83;26.77;;;-0.60;99.90;;;;;;5031530;28;20029;-80
2024/01/18 05:30:25;;;;;;;77.10;27.40;;;-0.60;99.90;;;;;;5044441;28;20036;-79
2024/01/18 05:32:50;;;;;;;59.20;25.55;;;-0.70;99.90;;;;;;5041109;28;20490;-79
2024/01/18 05:35:16;;;;;;;52.95;26.92;;;-0.70;99.90;;;;;;5037642;28;20401;-79
2024/01/18 05:37:43;;;;;;;63.53;26.80;;;-0.70;99.90;;;;;;5040205;28;20084;-81
2024/01/18 05:40:09;;;;;;;51.50;27.40;;;-0.80;99.90;;;;;;5041421;28;20029;-81
2024/01/18 05:42:35;;;;;;;48.78;25.20;;;-0.80;99.90;;;;;;5036114;28;20393;-82
2024/01/18 05:45:00;;;;;;;75.25;30.15;;;-0.80;99.90;;;;;;5040345;28;20536;-81
2024/01/18 05:47:26;;;;;;;58.95;28.70;;;-0.80;99.90;;;;;;5044566;28;20371;-80
2024/01/18 05:49:52;;;;;;;55.85;27.98;;;-0.90;99.90;;;;;;5045665;28;20056;-81
2024/01/18 05:52:18;;;;;;;52.17;27.08;;;-0.90;99.90;;;;;;5041620;28;20494;-83
2024/01/18 05:54:44;;;;;;;62.17;28.85;;;-0.90;99.90;;;;;;5038668;28;20041;-81
2024/01/18 05:57:10;;;;;;;56.42;26.88;;;-1.00;99.90;;;;;;5046765;28;20055;-81
2024/01/18 05:59:35;;;;;;;55.08;26.05;;;-1.00;99.90;;;;;;5045465;28;20470;-81
2024/01/18 06:02:01;;;;;;;63.05;27.15;;;-1.00;99.90;;;;;;5043618;28;20036;-81
2024/01/18 06:04:30;;;;;;;60.28;27.92;;;-1.00;99.90;;;;;;5042634;28;20396;-81
2024/01/18 06:06:56;;;;;;;47.97;25.27;;;-1.00;99.90;;;;;;5044079;28;20111;-81
2024/01/18 06:09:24;;;;;;;55.33;26.55;;;-1.00;99.90;;;;;;5046373;28;20213;-81
2024/01/18 06:11:50;;;;;;;49.05;25.20;;;-1.00;99.90;;;;;;5046527;28;20036;-81
2024/01/18 06:14:15;;;;;;;49.85;25.00;;;-1.00;99.90;;;;;;5047005;28;20041;-81
2024/01/18 06:16:41;;;;;;;49.95;23.58;;;-0.90;99.90;;;;;;5045790;28;20456;-81
2024/01/18 06:19:08;;;;;;;44.45;23.25;;;-0.90;99.90;;;;;;5045207;28;20120;-80
2024/01/18 06:21:34;;;;;;;51.80;25.88;;;-0.90;99.90;;;;;;5054917;28;20033;-82
2024/01/18 06:23:59;;;;;;;55.90;28.00;;;-0.90;99.90;;;;;;5061536;28;20032;-80
2024/01/18 06:26:26;;;;;;;58.80;26.13;;;-0.90;99.90;;;;;;5060847;28;20163;-80
2024/01/18 06:28:51;;;;;;;57.20;26.83;;;-0.90;99.90;;;;;;5062198;28;20040;-81
2024/01/18 06:31:19;;;;;;;46.28;23.73;;;-0.90;99.90;;;;;;5049790;28;20024;-82
2024/01/18 06:33:45;;;;;;;62.58;30.58;;;-0.90;99.90;;;;;;5049034;28;20041;-80
2024/01/18 06:36:14;;;;;;;69.20;34.25;;;-0.90;99.90;;;;;;5045882;28;20029;-81
2024/01/18 06:38:40;;;;;;;64.78;30.85;;;-0.90;99.90;;;;;;5040602;28;20036;-80
2024/01/18 06:41:06;;;;;;;58.45;30.17;;;-0.90;99.90;;;;;;5051010;28;20112;-81
2024/01/18 06:43:31;;;;;;;51.47;27.65;;;-0.90;99.90;;;;;;5045766;28;20061;-81
2024/01/18 06:45:57;;;;;;;61.65;27.13;;;-0.90;99.90;;;;;;5047736;28;20017;-80
2024/01/18 06:48:23;;;;;;;51.45;26.52;;;-0.90;99.90;;;;;;5050665;28;20495;-80
2024/01/18 06:50:49;;;;;;;56.08;26.15;;;-0.90;99.90;;;;;;5047211;28;20447;-81
2024/01/18 06:53:14;;;;;;;55.58;27.02;;;-0.90;99.90;;;;;;5041911;28;20504;-80
2024/01/18 06:55:41;;;;;;;72.82;31.85;;;-0.90;99.90;;;;;;5043683;28;20118;-81
2024/01/18 06:58:07;;;;;;;56.90;27.30;;;-0.90;99.90;;;;;;5045878;28;20033;-80
2024/01/18 07:00:36;;;;;;;64.35;29.48;;;-0.90;99.90;;;;;;5045913;28;20429;-83
2024/01/18 07:03:01;;;;;;;57.33;28.35;;;-0.90;99.90;;;;;;5049519;28;20124;-81
2024/01/18 07:05:27;;;;;;;55.60;27.88;;;-0.90;99.90;;;;;;5043268;28;20108;-80
2024/01/18 07:07:53;;;;;;;69.93;31.85;;;-0.90;99.90;;;;;;5042074;28;20029;-80
2024/01/18 07:10:20;;;;;;;63.08;30.23;;;-0.90;99.90;;;;;;5043060;28;20025;-82
2024/01/18 07:12:47;;;;;;;59.08;29.95;;;-0.80;99.90;;;;;;5038384;28;20041;-80
2024/01/18 07:15:13;;;;;;;59.50;31.40;;;-0.80;99.90;;;;;;5045360;28;20025;-81
2024/01/18 07:17:39;;;;;;;64.32;32.38;;;-0.80;99.90;;;;;;5049394;28;20039;-81
2024/01/18 07:20:05;;;;;;;75.32;33.20;;;-0.90;99.90;;;;;;5043758;28;20032;-81
2024/01/18 07:23:00;;;;;;;;;;;-0.90;99.90;;;;;;5089541;27;20446;-79
2024/01/18 07:25:25;;;;;;;71.90;33.05;;;-0.90;99.90;;;;;;5116200;27;19957;-79
2024/01/18 07:27:51;;;;;;;65.25;32.22;;;-0.80;99.90;;;;;;5098724;28;20476;-79
2024/01/18 07:30:17;;;;;;;57.70;28.77;;;-0.80;99.90;;;;;;5092706;28;20024;-79
2024/01/18 07:32:45;;;;;;;71.18;33.35;;;-0.80;99.90;;;;;;5103064;28;20426;-81
2024/01/18 07:35:13;;;;;;;72.80;33.92;;;-0.80;99.90;;;;;;5090818;28;20081;-79
2024/01/18 07:37:39;;;;;;;63.97;31.05;;;-0.70;99.90;;;;;;5094317;28;20044;-79
2024/01/18 07:40:07;;;;;;;67.78;32.10;;;-0.70;99.90;;;;;;5081179;28;20043;-79
2024/01/18 07:42:34;;;;;;;79.35;34.33;;;-0.70;99.90;;;;;;5077518;28;20028;-79
2024/01/18 07:45:00;;;;;;;58.67;30.40;;;-0.70;99.90;;;;;;5106186;27;20062;-79
2024/01/18 07:47:25;;;;;;;60.08;30.73;;;-0.70;99.90;;;;;;5110215;27;20055;-79
2024/01/18 07:49:53;;;;;;;74.63;34.28;;;-0.70;99.90;;;;;;5093010;28;20119;-79
2024/01/18 07:52:18;;;;;;;64.78;33.63;;;-0.70;99.90;;;;;;5081906;28;20127;-80
2024/01/18 07:54:45;;;;;;;64.68;32.67;;;-0.70;99.90;;;;;;5093051;28;20119;-79
2024/01/18 07:57:11;;;;;;;66.05;31.83;;;-0.70;99.90;;;;;;5088967;28;20078;-78
2024/01/18 07:59:36;;;;;;;63.97;31.95;;;-0.60;99.90;;;;;;5098543;28;20024;-79
2024/01/18 08:02:02;;;;;;;66.18;33.05;;;-0.60;99.90;;;;;;5101408;28;20047;-80
2024/01/18 08:04:29;;;;;;;75.28;35.72;;;-0.60;99.90;;;;;;5087068;28;20024;-79
2024/01/18 08:06:55;;;;;;;70.40;34.28;;;-0.60;99.90;;;;;;5080749;28;20039;-79
2024/01/18 08:09:21;;;;;;;69.55;34.72;;;-0.60;99.90;;;;;;5090398;28;20019;-79
2024/01/18 08:11:47;;;;;;;77.22;36.88;;;-0.70;99.90;;;;;;5088128;28;20465;-81
2024/01/18 08:14:13;;;;;;;69.70;36.95;;;-0.70;99.90;;;;;;5100335;28;20585;-78
2024/01/18 08:16:38;;;;;;;85.95;39.90;;;-0.60;99.90;;;;;;5091424;28;20039;-79
2024/01/18 08:19:05;;;;;;;69.30;36.83;;;-0.60;99.90;;;;;;5105221;27;20028;-80
2024/01/18 08:21:30;;;;;;;72.05;35.75;;;-0.60;99.90;;;;;;5092983;28;20040;-78
2024/01/18 08:23:56;;;;;;;76.10;34.97;;;-0.60;99.90;;;;;;5085491;28;20031;-78
2024/01/18 08:26:22;;;;;;;67.05;33.28;;;-0.50;99.90;;;;;;5092647;28;20015;-78
2024/01/18 08:28:47;;;;;;;68.30;34.22;;;-0.50;99.90;;;;;;5080176;28;20031;-80
2024/01/18 08:31:13;;;;;;;64.63;32.42;;;-0.50;99.90;;;;;;5113900;28;20051;-78
2024/01/18 08:33:39;;;;;;;82.32;33.45;;;-0.50;99.90;;;;;;5110139;27;20031;-79
2024/01/18 08:36:07;;;;;;;69.90;34.58;;;-0.50;99.90;;;;;;5106493;28;20059;-79
2024/01/18 08:38:32;;;;;;;71.63;33.40;;;-0.50;99.90;;;;;;5089802;28;20254;-80
2024/01/18 08:40:59;;;;;;;68.03;34.53;;;-0.50;99.90;;;;;;5097373;28;20073;-79
2024/01/18 08:43:27;;;;;;;68.72;34.03;;;-0.40;99.90;;;;;;5093149;28;20035;-80
2024/01/18 08:45:56;;;;;;;70.63;37.47;;;-0.40;99.90;;;;;;5101557;28;20031;-81
2024/01/18 08:48:23;;;;;;;79.55;34.63;;;-0.40;99.90;;;;;;5086826;28;20119;-80
2024/01/18 08:50:48;;;;;;;70.90;34.80;;;-0.40;99.90;;;;;;5105321;28;20061;-79
2024/01/18 08:53:14;;;;;;;66.43;33.40;;;-0.30;99.90;;;;;;5089121;28;20110;-79
2024/01/18 08:55:41;;;;;;;72.22;35.90;;;-0.40;99.90;;;;;;5105939;28;20028;-79
2024/01/18 08:58:07;;;;;;;69.28;34.95;;;-0.40;99.90;;;;;;5107117;28;20023;-79
2024/01/18 09:00:33;;;;;;;77.00;36.33;;;-0.40;99.90;;;;;;5105619;28;20083;-80
2024/01/18 09:02:58;;;;;;;87.93;37.63;;;-0.40;99.90;;;;;;5083299;28;20074;-79
2024/01/18 09:05:24;;;;;;;79.82;38.08;;;-0.40;99.90;;;;;;5090442;28;20101;-79
2024/01/18 09:07:49;;;;;;;88.00;39.05;;;-0.40;99.90;;;;;;5104512;28;20118;-79
2024/01/18 09:10:16;;;;;;;81.57;39.53;;;-0.50;99.90;;;;;;5107937;28;20076;-79
2024/01/18 09:12:45;;;;;;;90.75;40.10;;;-0.50;99.90;;;;;;5103042;28;20023;-79
2024/01/18 09:15:11;;;;;;;92.00;41.10;;;-0.40;99.90;;;;;;5085964;28;20039;-79
2024/01/18 09:17:48;;;;;;;88.90;41.83;;;-0.40;99.90;;;;;;5090374;28;20392;-78
2024/01/18 09:20:13;;;;;;;79.25;39.90;;;-0.40;99.90;;;;;;5095067;28;20143;-81
2024/01/18 09:22:40;;;;;;;85.70;41.45;;;-0.40;99.90;;;;;;5099654;28;20131;-79
2024/01/18 09:25:06;;;;;;;99.10;43.28;;;-0.40;99.90;;;;;;5095458;28;20036;-79
2024/01/18 09:27:32;;;;;;;94.28;42.63;;;-0.40;99.90;;;;;;5093771;28;20294;-79
2024/01/18 09:29:57;;;;;;;81.00;39.65;;;-0.40;99.90;;;;;;5088966;28;20479;-79
2024/01/18 09:32:25;;;;;;;85.15;40.15;;;-0.40;99.90;;;;;;5098248;28;20040;-79
2024/01/18 09:34:50;;;;;;;90.53;41.65;;;-0.40;99.90;;;;;;5099513;28;20045;-79
2024/01/18 09:37:17;;;;;;;94.90;42.65;;;-0.40;99.90;;;;;;5095075;28;20424;-79
2024/01/18 09:39:45;;;;;;;93.82;41.90;;;-0.40;99.90;;;;;;5097575;28;20019;-81
2024/01/18 09:42:16;;;;;;;86.45;42.65;;;-0.40;99.90;;;;;;5089216;28;20094;-79
2024/01/18 09:44:46;;;;;;;92.30;41.05;;;-0.40;99.90;;;;;;5099748;28;20023;-79
2024/01/18 09:47:13;;;;;;;97.28;44.42;;;-0.40;99.90;;;;;;5092465;28;20464;-78
2024/01/18 09:49:42;;;;;;;78.57;40.58;;;-0.40;99.90;;;;;;5087887;28;20028;-78
2024/01/18 09:52:08;;;;;;;86.40;41.10;;;-0.30;99.90;;;;;;5106314;28;20028;-79
2024/01/18 09:54:34;;;;;;;79.63;39.97;;;-0.40;99.90;;;;;;5105514;28;20110;-80
2024/01/18 09:57:00;;;;;;;92.25;43.38;;;-0.30;99.90;;;;;;5089382;28;20106;-79
2024/01/18 09:59:28;;;;;;;82.40;40.47;;;-0.30;99.90;;;;;;5102267;28;20028;-78
2024/01/18 10:01:56;;;;;;;74.32;41.00;;;-0.30;99.90;;;;;;5099151;28;20050;-78
2024/01/18 10:04:23;;;;;;;92.85;43.20;;;-0.30;99.90;;;;;;5106388;28;20038;-79
2024/01/18 10:06:49;;;;;;;97.38;42.45;;;-0.20;99.90;;;;;;5105503;28;20027;-80
2024/01/18 10:09:14;;;;;;;88.20;42.75;;;-0.20;99.90;;;;;;5106879;28;20034;-79
2024/01/18 10:11:44;;;;;;;94.75;44.65;;;-0.20;99.90;;;;;;5094611;28;20023;-79
2024/01/18 10:14:10;;;;;;;94.63;42.67;;;-0.20;99.90;;;;;;5096355;28;20110;-78
2024/01/18 10:16:37;;;;;;;88.45;41.50;;;-0.10;99.90;;;;;;5091872;28;20113;-79
2024/01/18 10:19:06;;;;;;;79.18;41.10;;;-0.10;99.90;;;;;;5093477;28;20028;-79
2024/01/18 10:21:33;;;;;;;82.72;40.00;;;-0.10;99.90;;;;;;5088325;28;20519;-78
2024/01/18 10:24:00;;;;;;;82.30;41.53;;;-0.10;99.90;;;;;;5087890;28;20119;-78
2024/01/18 10:26:30;;;;;;;70.90;38.08;;;-0.10;99.90;;;;;;5102965;28;20026;-78
2024/01/18 10:28:56;;;;;;;82.85;40.83;;;-0.10;99.90;;;;;;5089684;28;20102;-78
2024/01/18 10:31:22;;;;;;;90.18;44.70;;;-0.10;99.90;;;;;;5096159;28;20496;-78
2024/01/18 10:33:47;;;;;;;82.22;41.13;;;-0.10;99.90;;;;;;5090218;28;20016;-79
2024/01/18 10:36:13;;;;;;;98.32;49.08;;;-0.10;99.90;;;;;;5097494;28;20035;-80
2024/01/18 10:38:41;;;;;;;89.50;43.22;;;-0.10;99.90;;;;;;5096028;28;20076;-78
2024/01/18 10:41:10;;;;;;;98.45;43.28;;;0.00;99.90;;;;;;5104996;28;20507;-78
2024/01/18 10:43:40;;;;;;;76.88;42.03;;;0.00;99.90;;;;;;5098897;28;20111;-80
2024/01/18 10:46:05;;;;;;;102.30;44.80;;;0.00;99.90;;;;;;5096655;28;20030;-78
2024/01/18 10:48:32;;;;;;;80.78;43.40;;;0.10;99.90;;;;;;5104919;28;20384;-78
2024/01/18 10:50:59;;;;;;;92.57;45.08;;;0.10;99.90;;;;;;5102916;28;20039;-78
2024/01/18 10:53:26;;;;;;;85.45;43.08;;;0.10;99.90;;;;;;5097830;28;20032;-78
2024/01/18 10:55:52;;;;;;;93.47;45.75;;;0.10;99.90;;;;;;5095037;28;20484;-78
2024/01/18 10:58:21;;;;;;;92.18;43.17;;;0.10;99.90;;;;;;5097212;28;20495;-79
2024/01/18 11:00:47;;;;;;;83.82;42.60;;;0.20;99.90;;;;;;5102960;28;20039;-78
2024/01/18 11:03:17;;;;;;;94.65;43.70;;;0.10;99.90;;;;;;5093307;28;20081;-80
2024/01/18 11:05:46;;;;;;;86.55;41.50;;;0.20;99.90;;;;;;5097476;28;20051;-79
2024/01/18 11:08:13;;;;;;;84.32;44.20;;;0.20;99.90;;;;;;5084207;28;20085;-78
2024/01/18 11:10:46;;;;;;;95.10;45.50;;;0.20;99.90;;;;;;5100321;28;20027;-78
2024/01/18 11:13:17;;;;;;;85.40;44.97;;;0.20;99.90;;;;;;5098610;28;20036;-80
2024/01/18 11:15:44;;;;;;;100.82;47.42;;;0.20;99.90;;;;;;5104096;28;20073;-80
2024/01/18 11:18:11;;;;;;;83.22;42.70;;;0.20;99.90;;;;;;5103920;28;20057;-78
2024/01/18 11:20:56;;;;;;;97.30;47.42;;;0.20;99.90;;;;;;5101487;28;20348;-77
2024/01/18 11:23:25;;;;;;;96.57;45.60;;;0.20;99.90;;;;;;5085397;28;20024;-78
2024/01/18 11:25:51;;;;;;;89.20;45.85;;;0.20;99.90;;;;;;5071316;28;20029;-78
2024/01/18 11:28:26;;;;;;;98.00;48.53;;;0.20;99.90;;;;;;5076192;28;20028;-77
2024/01/18 11:30:52;;;;;;;101.88;46.80;;;0.10;99.90;;;;;;5078235;28;20024;-78
2024/01/18 11:33:18;;;;;;;99.07;48.30;;;0.10;99.90;;;;;;5064909;28;20544;-78
2024/01/18 11:35:44;;;;;;;95.50;49.03;;;0.00;99.90;;;;;;5079747;28;20106;-78
2024/01/18 11:38:21;;;;;;;98.20;51.25;;;0.00;99.90;;;;;;5082091;28;20044;-78
2024/01/18 11:40:50;;;;;;;98.80;48.47;;;0.00;99.90;;;;;;5048688;28;20040;-78
2024/01/18 11:43:17;;;;;;;115.43;51.75;;;-0.10;99.90;;;;;;5074998;28;20035;-77
2024/01/18 11:45:44;;;;;;;114.00;54.45;;;-0.10;99.90;;;;;;5073058;28;20024;-77
2024/01/18 11:48:11;;;;;;;109.15;51.95;;;-0.20;99.90;;;;;;5059415;28;20092;-78
2024/01/18 11:50:37;;;;;;;108.05;50.50;;;-0.20;99.90;;;;;;5068315;28;20025;-78
2024/01/18 11:53:04;;;;;;;122.72;52.97;;;-0.30;99.90;;;;;;5084812;28;20046;-79
2024/01/18 11:55:35;;;;;;;115.85;51.42;;;-0.40;99.90;;;;;;5083177;28;20698;-78
2024/01/18 11:58:03;;;;;;;106.22;47.38;;;-0.40;99.90;;;;;;5070068;28;20031;-77
2024/01/18 12:00:31;;;;;;;116.95;48.28;;;-0.40;99.90;;;;;;5074130;28;20476;-77
2024/01/18 12:02:57;;;;;;;109.57;47.50;;;-0.40;99.90;;;;;;5088390;28;20385;-78
2024/01/18 12:05:24;;;;;;;98.10;45.47;;;-0.40;99.90;;;;;;5080545;28;20029;-78
2024/01/18 12:07:50;;;;;;;93.03;42.78;;;-0.40;99.90;;;;;;5101958;28;20023;-78
2024/01/18 12:10:18;;;;;;;91.70;46.17;;;-0.40;99.90;;;;;;5096108;28;20398;-78
2024/01/18 12:12:45;;;;;;;97.05;43.42;;;-0.40;99.90;;;;;;5088616;28;20123;-79
2024/01/18 12:15:16;;;;;;;101.72;43.40;;;-0.30;99.90;;;;;;5089128;28;20486;-78
2024/01/18 12:17:43;;;;;;;90.45;43.65;;;-0.30;99.90;;;;;;5076333;28;20492;-79
2024/01/18 12:20:16;;;;;;;94.28;38.42;;;-0.30;99.90;;;;;;5089840;28;20020;-78
2024/01/18 12:22:43;;;;;;;93.22;39.85;;;-0.30;99.90;;;;;;5079138;28;20036;-79
2024/01/18 12:25:09;;;;;;;79.30;38.47;;;-0.30;99.90;;;;;;5089324;28;20050;-78